sensor_id;sensor_type;location;lat;lon;timestamp;P1;durP1;ratioP1;P2;durP2;ratioP2
20567;SDS011;10442;49.932;11.592;2023-07-09T00:01:55;7.45;;;6.28;;
20567;SDS011;10442;49.932;11.592;2023-07-09T00:04:23;6.60;;;6.00;;
20567;SDS011;10442;49.932;11.592;2023-07-09T00:06:50;15.05;;;5.22;;
20567;SDS011;10442;49.932;11.592;2023-07-09T00:09:19;6.18;;;4.78;;
20567;SDS011;10442;49.932;11.592;2023-07-09T00:11:49;5.97;;;5.47;;
20567;SDS011;10442;49.932;11.592;2023-07-09T00:14:16;4.68;;;4.28;;
20567;SDS011;10442;49.932;11.592;2023-07-09T00:16:44;6.32;;;5.72;;
20567;SDS011;10442;49.932;11.592;2023-07-09T00:19:17;6.03;;;5.53;;
20567;SDS011;10442;49.932;11.592;2023-07-09T00:21:47;7.63;;;6.15;;
20567;SDS011;10442;49.932;11.592;2023-07-09T00:24:20;5.75;;;4.90;;
20567;SDS011;10442;49.932;11.592;2023-07-09T00:26:48;6.00;;;5.50;;
20567;SDS011;10442;49.932;11.592;2023-07-09T00:29:16;5.78;;;5.18;;
20567;SDS011;10442;49.932;11.592;2023-07-09T00:31:44;5.20;;;4.72;;
20567;SDS011;10442;49.932;11.592;2023-07-09T00:34:13;5.03;;;4.45;;
20567;SDS011;10442;49.932;11.592;2023-07-09T00:36:44;8.25;;;5.72;;
20567;SDS011;10442;49.932;11.592;2023-07-09T00:39:16;6.85;;;6.35;;
20567;SDS011;10442;49.932;11.592;2023-07-09T00:41:45;6.40;;;5.80;;
20567;SDS011;10442;49.932;11.592;2023-07-09T00:49:24;6.25;;;5.65;;
20567;SDS011;10442;49.932;11.592;2023-07-09T00:51:56;5.65;;;5.18;;
20567;SDS011;10442;49.932;11.592;2023-07-09T00:54:37;6.97;;;5.53;;
20567;SDS011;10442;49.932;11.592;2023-07-09T00:57:13;6.45;;;4.88;;
20567;SDS011;10442;49.932;11.592;2023-07-09T00:59:49;7.45;;;5.13;;
20567;SDS011;10442;49.932;11.592;2023-07-09T01:02:21;6.45;;;5.43;;
20567;SDS011;10442;49.932;11.592;2023-07-09T01:04:51;5.88;;;4.97;;
20567;SDS011;10442;49.932;11.592;2023-07-09T01:07:24;5.65;;;5.15;;
20567;SDS011;10442;49.932;11.592;2023-07-09T01:09:52;5.78;;;5.18;;
20567;SDS011;10442;49.932;11.592;2023-07-09T01:12:19;6.50;;;5.18;;
20567;SDS011;10442;49.932;11.592;2023-07-09T01:14:49;5.88;;;5.43;;
20567;SDS011;10442;49.932;11.592;2023-07-09T01:17:20;6.35;;;5.78;;
20567;SDS011;10442;49.932;11.592;2023-07-09T01:19:49;6.68;;;6.07;;
20567;SDS011;10442;49.932;11.592;2023-07-09T01:22:18;6.25;;;5.75;;
20567;SDS011;10442;49.932;11.592;2023-07-09T01:27:19;6.78;;;6.15;;
20567;SDS011;10442;49.932;11.592;2023-07-09T01:29:50;4.80;;;4.50;;
20567;SDS011;10442;49.932;11.592;2023-07-09T01:32:18;6.18;;;5.50;;
20567;SDS011;10442;49.932;11.592;2023-07-09T01:34:47;5.22;;;4.82;;
20567;SDS011;10442;49.932;11.592;2023-07-09T01:37:17;6.50;;;6.00;;
20567;SDS011;10442;49.932;11.592;2023-07-09T01:39:49;6.57;;;5.72;;
20567;SDS011;10442;49.932;11.592;2023-07-09T01:42:18;6.07;;;5.47;;
20567;SDS011;10442;49.932;11.592;2023-07-09T01:44:51;5.03;;;4.65;;
20567;SDS011;10442;49.932;11.592;2023-07-09T01:47:20;5.70;;;5.18;;
20567;SDS011;10442;49.932;11.592;2023-07-09T01:49:51;5.95;;;5.35;;
20567;SDS011;10442;49.932;11.592;2023-07-09T01:52:25;7.20;;;4.60;;
20567;SDS011;10442;49.932;11.592;2023-07-09T01:54:54;6.72;;;4.57;;
20567;SDS011;10442;49.932;11.592;2023-07-09T01:57:23;7.95;;;5.63;;
20567;SDS011;10442;49.932;11.592;2023-07-09T02:00:03;6.55;;;5.95;;
20567;SDS011;10442;49.932;11.592;2023-07-09T02:02:40;5.95;;;5.25;;
20567;SDS011;10442;49.932;11.592;2023-07-09T02:05:14;6.35;;;5.75;;
20567;SDS011;10442;49.932;11.592;2023-07-09T02:07:44;5.60;;;5.10;;
20567;SDS011;10442;49.932;11.592;2023-07-09T02:10:14;7.13;;;6.53;;
20567;SDS011;10442;49.932;11.592;2023-07-09T02:12:43;5.80;;;5.30;;
20567;SDS011;10442;49.932;11.592;2023-07-09T02:15:11;9.48;;;6.13;;
20567;SDS011;10442;49.932;11.592;2023-07-09T02:17:39;7.55;;;6.30;;
20567;SDS011;10442;49.932;11.592;2023-07-09T02:20:07;5.95;;;5.45;;
20567;SDS011;10442;49.932;11.592;2023-07-09T02:22:36;6.68;;;5.90;;
20567;SDS011;10442;49.932;11.592;2023-07-09T02:25:04;8.95;;;6.72;;
20567;SDS011;10442;49.932;11.592;2023-07-09T02:27:33;5.93;;;5.45;;
20567;SDS011;10442;49.932;11.592;2023-07-09T02:30:02;6.85;;;6.35;;
20567;SDS011;10442;49.932;11.592;2023-07-09T02:32:31;7.60;;;5.90;;
20567;SDS011;10442;49.932;11.592;2023-07-09T02:34:59;6.65;;;6.05;;
20567;SDS011;10442;49.932;11.592;2023-07-09T02:37:27;5.78;;;5.28;;
20567;SDS011;10442;49.932;11.592;2023-07-09T02:39:54;6.13;;;5.65;;
20567;SDS011;10442;49.932;11.592;2023-07-09T02:42:22;6.50;;;6.00;;
20567;SDS011;10442;49.932;11.592;2023-07-09T02:44:50;6.15;;;5.50;;
20567;SDS011;10442;49.932;11.592;2023-07-09T02:47:18;5.55;;;5.03;;
20567;SDS011;10442;49.932;11.592;2023-07-09T02:49:47;6.65;;;5.65;;
20567;SDS011;10442;49.932;11.592;2023-07-09T02:52:15;5.35;;;4.93;;
20567;SDS011;10442;49.932;11.592;2023-07-09T02:54:42;5.40;;;4.97;;
20567;SDS011;10442;49.932;11.592;2023-07-09T02:57:10;7.60;;;5.78;;
20567;SDS011;10442;49.932;11.592;2023-07-09T02:59:38;6.25;;;5.75;;
20567;SDS011;10442;49.932;11.592;2023-07-09T03:02:05;5.88;;;5.38;;
20567;SDS011;10442;49.932;11.592;2023-07-09T03:04:33;6.25;;;5.68;;
20567;SDS011;10442;49.932;11.592;2023-07-09T03:07:00;6.20;;;5.30;;
20567;SDS011;10442;49.932;11.592;2023-07-09T03:09:28;5.95;;;5.50;;
20567;SDS011;10442;49.932;11.592;2023-07-09T03:11:56;5.63;;;5.18;;
20567;SDS011;10442;49.932;11.592;2023-07-09T03:14:23;5.75;;;5.35;;
20567;SDS011;10442;49.932;11.592;2023-07-09T03:16:51;5.53;;;5.13;;
20567;SDS011;10442;49.932;11.592;2023-07-09T03:19:19;6.80;;;6.30;;
20567;SDS011;10442;49.932;11.592;2023-07-09T03:21:46;6.05;;;5.45;;
20567;SDS011;10442;49.932;11.592;2023-07-09T03:24:14;7.95;;;6.57;;
20567;SDS011;10442;49.932;11.592;2023-07-09T03:26:45;8.13;;;5.63;;
20567;SDS011;10442;49.932;11.592;2023-07-09T03:29:13;5.45;;;4.95;;
20567;SDS011;10442;49.932;11.592;2023-07-09T03:31:41;5.43;;;4.90;;
20567;SDS011;10442;49.932;11.592;2023-07-09T03:34:08;5.60;;;5.10;;
20567;SDS011;10442;49.932;11.592;2023-07-09T03:36:36;5.70;;;5.20;;
20567;SDS011;10442;49.932;11.592;2023-07-09T03:39:05;6.47;;;5.88;;
20567;SDS011;10442;49.932;11.592;2023-07-09T03:41:34;5.57;;;5.18;;
20567;SDS011;10442;49.932;11.592;2023-07-09T03:44:01;5.95;;;5.45;;
20567;SDS011;10442;49.932;11.592;2023-07-09T03:46:29;5.32;;;4.90;;
20567;SDS011;10442;49.932;11.592;2023-07-09T03:48:58;7.95;;;6.05;;
20567;SDS011;10442;49.932;11.592;2023-07-09T03:51:27;6.85;;;6.25;;
20567;SDS011;10442;49.932;11.592;2023-07-09T03:53:54;6.88;;;6.28;;
20567;SDS011;10442;49.932;11.592;2023-07-09T03:56:22;5.95;;;5.45;;
20567;SDS011;10442;49.932;11.592;2023-07-09T03:58:50;5.72;;;5.25;;
20567;SDS011;10442;49.932;11.592;2023-07-09T04:01:17;6.03;;;5.53;;
20567;SDS011;10442;49.932;11.592;2023-07-09T04:03:45;6.90;;;6.05;;
20567;SDS011;10442;49.932;11.592;2023-07-09T04:06:12;6.60;;;6.10;;
20567;SDS011;10442;49.932;11.592;2023-07-09T04:08:40;6.53;;;5.90;;
20567;SDS011;10442;49.932;11.592;2023-07-09T04:11:07;5.78;;;5.38;;
20567;SDS011;10442;49.932;11.592;2023-07-09T04:13:36;6.30;;;5.80;;
20567;SDS011;10442;49.932;11.592;2023-07-09T04:16:03;6.15;;;5.65;;
20567;SDS011;10442;49.932;11.592;2023-07-09T04:18:32;7.57;;;6.88;;
20567;SDS011;10442;49.932;11.592;2023-07-09T04:20:59;7.00;;;6.50;;
20567;SDS011;10442;49.932;11.592;2023-07-09T04:23:27;6.90;;;6.30;;
20567;SDS011;10442;49.932;11.592;2023-07-09T04:25:54;6.40;;;5.97;;
20567;SDS011;10442;49.932;11.592;2023-07-09T04:28:22;7.40;;;6.82;;
20567;SDS011;10442;49.932;11.592;2023-07-09T04:30:50;6.15;;;5.65;;
20567;SDS011;10442;49.932;11.592;2023-07-09T04:33:19;5.80;;;5.30;;
20567;SDS011;10442;49.932;11.592;2023-07-09T04:35:48;5.90;;;5.40;;
20567;SDS011;10442;49.932;11.592;2023-07-09T04:38:15;6.10;;;5.60;;
20567;SDS011;10442;49.932;11.592;2023-07-09T04:40:43;6.10;;;5.60;;
20567;SDS011;10442;49.932;11.592;2023-07-09T04:43:11;6.53;;;5.90;;
20567;SDS011;10442;49.932;11.592;2023-07-09T04:45:39;6.82;;;6.22;;
20567;SDS011;10442;49.932;11.592;2023-07-09T04:48:06;5.65;;;5.15;;
20567;SDS011;10442;49.932;11.592;2023-07-09T04:50:34;6.05;;;5.55;;
20567;SDS011;10442;49.932;11.592;2023-07-09T04:53:01;6.15;;;5.65;;
20567;SDS011;10442;49.932;11.592;2023-07-09T04:55:30;6.38;;;5.85;;
20567;SDS011;10442;49.932;11.592;2023-07-09T04:57:58;6.60;;;5.38;;
20567;SDS011;10442;49.932;11.592;2023-07-09T05:00:26;6.60;;;6.00;;
20567;SDS011;10442;49.932;11.592;2023-07-09T05:02:54;5.90;;;5.40;;
20567;SDS011;10442;49.932;11.592;2023-07-09T05:05:21;5.32;;;4.95;;
20567;SDS011;10442;49.932;11.592;2023-07-09T05:07:48;6.15;;;5.65;;
20567;SDS011;10442;49.932;11.592;2023-07-09T05:10:17;5.50;;;5.05;;
20567;SDS011;10442;49.932;11.592;2023-07-09T05:12:52;6.13;;;5.50;;
20567;SDS011;10442;49.932;11.592;2023-07-09T05:15:21;6.32;;;5.70;;
20567;SDS011;10442;49.932;11.592;2023-07-09T05:17:50;5.90;;;4.90;;
20567;SDS011;10442;49.932;11.592;2023-07-09T05:20:19;5.28;;;4.82;;
20567;SDS011;10442;49.932;11.592;2023-07-09T05:22:48;6.22;;;5.63;;
20567;SDS011;10442;49.932;11.592;2023-07-09T05:25:15;5.18;;;4.78;;
20567;SDS011;10442;49.932;11.592;2023-07-09T05:27:43;5.20;;;4.70;;
20567;SDS011;10442;49.932;11.592;2023-07-09T05:30:11;5.25;;;4.80;;
20567;SDS011;10442;49.932;11.592;2023-07-09T05:32:38;7.13;;;6.53;;
20567;SDS011;10442;49.932;11.592;2023-07-09T05:35:06;5.13;;;4.72;;
20567;SDS011;10442;49.932;11.592;2023-07-09T05:37:34;6.50;;;5.82;;
20567;SDS011;10442;49.932;11.592;2023-07-09T05:40:03;5.35;;;4.75;;
20567;SDS011;10442;49.932;11.592;2023-07-09T05:42:34;5.78;;;5.32;;
20567;SDS011;10442;49.932;11.592;2023-07-09T05:45:01;5.68;;;5.15;;
20567;SDS011;10442;49.932;11.592;2023-07-09T05:47:29;6.30;;;5.80;;
20567;SDS011;10442;49.932;11.592;2023-07-09T05:49:57;7.10;;;6.40;;
20567;SDS011;10442;49.932;11.592;2023-07-09T05:52:24;6.18;;;5.68;;
20567;SDS011;10442;49.932;11.592;2023-07-09T05:54:51;5.13;;;4.78;;
20567;SDS011;10442;49.932;11.592;2023-07-09T05:57:20;5.65;;;5.25;;
20567;SDS011;10442;49.932;11.592;2023-07-09T05:59:48;5.70;;;5.30;;
20567;SDS011;10442;49.932;11.592;2023-07-09T06:02:16;5.78;;;5.07;;
20567;SDS011;10442;49.932;11.592;2023-07-09T06:04:45;5.70;;;5.30;;
20567;SDS011;10442;49.932;11.592;2023-07-09T06:07:16;5.05;;;4.65;;
20567;SDS011;10442;49.932;11.592;2023-07-09T06:09:45;6.03;;;5.53;;
20567;SDS011;10442;49.932;11.592;2023-07-09T06:12:13;5.32;;;4.68;;
20567;SDS011;10442;49.932;11.592;2023-07-09T06:14:40;5.80;;;5.40;;
20567;SDS011;10442;49.932;11.592;2023-07-09T06:17:07;6.55;;;6.05;;
20567;SDS011;10442;49.932;11.592;2023-07-09T06:19:35;5.88;;;5.38;;
20567;SDS011;10442;49.932;11.592;2023-07-09T06:22:02;5.88;;;5.38;;
20567;SDS011;10442;49.932;11.592;2023-07-09T06:24:31;6.88;;;4.70;;
20567;SDS011;10442;49.932;11.592;2023-07-09T06:26:58;5.10;;;4.70;;
20567;SDS011;10442;49.932;11.592;2023-07-09T06:29:26;5.63;;;5.22;;
20567;SDS011;10442;49.932;11.592;2023-07-09T06:31:53;5.22;;;4.82;;
20567;SDS011;10442;49.932;11.592;2023-07-09T06:34:21;5.38;;;4.97;;
20567;SDS011;10442;49.932;11.592;2023-07-09T06:36:48;5.25;;;4.85;;
20567;SDS011;10442;49.932;11.592;2023-07-09T06:39:15;4.82;;;4.40;;
20567;SDS011;10442;49.932;11.592;2023-07-09T06:41:46;4.63;;;4.25;;
20567;SDS011;10442;49.932;11.592;2023-07-09T06:44:33;5.97;;;5.47;;
20567;SDS011;10442;49.932;11.592;2023-07-09T06:47:00;6.75;;;5.10;;
20567;SDS011;10442;49.932;11.592;2023-07-09T06:49:28;6.57;;;5.32;;
20567;SDS011;10442;49.932;11.592;2023-07-09T06:51:55;7.97;;;5.03;;
20567;SDS011;10442;49.932;11.592;2023-07-09T06:54:22;5.70;;;5.13;;
20567;SDS011;10442;49.932;11.592;2023-07-09T06:56:50;6.18;;;4.95;;
20567;SDS011;10442;49.932;11.592;2023-07-09T06:59:17;4.63;;;4.28;;
20567;SDS011;10442;49.932;11.592;2023-07-09T07:01:45;4.97;;;4.47;;
20567;SDS011;10442;49.932;11.592;2023-07-09T07:04:12;4.82;;;4.53;;
20567;SDS011;10442;49.932;11.592;2023-07-09T07:06:39;5.25;;;4.85;;
20567;SDS011;10442;49.932;11.592;2023-07-09T07:09:07;6.65;;;5.18;;
20567;SDS011;10442;49.932;11.592;2023-07-09T07:11:35;4.40;;;4.07;;
20567;SDS011;10442;49.932;11.592;2023-07-09T07:14:02;5.50;;;5.00;;
20567;SDS011;10442;49.932;11.592;2023-07-09T07:16:30;5.90;;;5.28;;
20567;SDS011;10442;49.932;11.592;2023-07-09T07:18:58;6.90;;;5.47;;
20567;SDS011;10442;49.932;11.592;2023-07-09T07:21:25;5.82;;;4.75;;
20567;SDS011;10442;49.932;11.592;2023-07-09T07:23:53;4.32;;;4.00;;
20567;SDS011;10442;49.932;11.592;2023-07-09T07:26:20;4.78;;;4.47;;
20567;SDS011;10442;49.932;11.592;2023-07-09T07:28:48;5.57;;;5.05;;
20567;SDS011;10442;49.932;11.592;2023-07-09T07:31:17;4.68;;;4.38;;
20567;SDS011;10442;49.932;11.592;2023-07-09T07:33:44;6.35;;;4.47;;
20567;SDS011;10442;49.932;11.592;2023-07-09T07:36:12;4.97;;;4.53;;
20567;SDS011;10442;49.932;11.592;2023-07-09T07:38:57;4.80;;;4.38;;
20567;SDS011;10442;49.932;11.592;2023-07-09T07:41:25;8.13;;;5.13;;
20567;SDS011;10442;49.932;11.592;2023-07-09T07:43:52;5.70;;;5.13;;
20567;SDS011;10442;49.932;11.592;2023-07-09T07:46:20;5.25;;;4.78;;
20567;SDS011;10442;49.932;11.592;2023-07-09T07:48:47;6.32;;;5.30;;
20567;SDS011;10442;49.932;11.592;2023-07-09T07:51:15;4.97;;;4.30;;
20567;SDS011;10442;49.932;11.592;2023-07-09T07:53:42;5.13;;;4.55;;
20567;SDS011;10442;49.932;11.592;2023-07-09T07:56:10;5.30;;;4.45;;
20567;SDS011;10442;49.932;11.592;2023-07-09T07:58:37;4.95;;;4.50;;
20567;SDS011;10442;49.932;11.592;2023-07-09T08:01:05;5.35;;;4.85;;
20567;SDS011;10442;49.932;11.592;2023-07-09T08:03:33;5.80;;;4.95;;
20567;SDS011;10442;49.932;11.592;2023-07-09T08:06:02;5.93;;;5.53;;
20567;SDS011;10442;49.932;11.592;2023-07-09T08:08:30;4.40;;;4.10;;
20567;SDS011;10442;49.932;11.592;2023-07-09T08:11:02;5.82;;;5.25;;
20567;SDS011;10442;49.932;11.592;2023-07-09T08:13:34;5.28;;;4.75;;
20567;SDS011;10442;49.932;11.592;2023-07-09T08:16:04;5.38;;;4.97;;
20567;SDS011;10442;49.932;11.592;2023-07-09T08:18:33;4.97;;;4.68;;
20567;SDS011;10442;49.932;11.592;2023-07-09T08:21:01;5.32;;;4.80;;
20567;SDS011;10442;49.932;11.592;2023-07-09T08:23:31;5.07;;;4.60;;
20567;SDS011;10442;49.932;11.592;2023-07-09T08:25:59;4.88;;;4.53;;
20567;SDS011;10442;49.932;11.592;2023-07-09T08:28:30;5.97;;;4.78;;
20567;SDS011;10442;49.932;11.592;2023-07-09T08:30:58;4.60;;;4.20;;
20567;SDS011;10442;49.932;11.592;2023-07-09T08:33:26;4.28;;;3.97;;
20567;SDS011;10442;49.932;11.592;2023-07-09T08:35:54;5.13;;;4.53;;
20567;SDS011;10442;49.932;11.592;2023-07-09T08:38:21;4.63;;;3.80;;
20567;SDS011;10442;49.932;11.592;2023-07-09T08:44:07;4.63;;;4.07;;
20567;SDS011;10442;49.932;11.592;2023-07-09T08:52:29;4.32;;;3.92;;
20567;SDS011;10442;49.932;11.592;2023-07-09T08:55:05;4.25;;;3.95;;
20567;SDS011;10442;49.932;11.592;2023-07-09T08:57:39;4.85;;;4.50;;
20567;SDS011;10442;49.932;11.592;2023-07-09T09:00:20;4.97;;;4.68;;
20567;SDS011;10442;49.932;11.592;2023-07-09T09:02:56;4.82;;;4.43;;
20567;SDS011;10442;49.932;11.592;2023-07-09T09:05:28;4.15;;;3.85;;
20567;SDS011;10442;49.932;11.592;2023-07-09T09:08:02;4.47;;;4.07;;
20567;SDS011;10442;49.932;11.592;2023-07-09T09:10:46;4.68;;;4.28;;
20567;SDS011;10442;49.932;11.592;2023-07-09T09:13:22;4.10;;;3.72;;
20567;SDS011;10442;49.932;11.592;2023-07-09T09:16:03;4.28;;;3.88;;
20567;SDS011;10442;49.932;11.592;2023-07-09T09:18:42;4.00;;;3.47;;
20567;SDS011;10442;49.932;11.592;2023-07-09T09:23:45;3.53;;;3.22;;
20567;SDS011;10442;49.932;11.592;2023-07-09T09:26:34;3.38;;;3.17;;
20567;SDS011;10442;49.932;11.592;2023-07-09T09:29:15;8.18;;;3.72;;
20567;SDS011;10442;49.932;11.592;2023-07-09T09:31:44;5.32;;;3.70;;
20567;SDS011;10442;49.932;11.592;2023-07-09T09:34:19;3.70;;;3.38;;
20567;SDS011;10442;49.932;11.592;2023-07-09T09:36:49;3.50;;;3.20;;
20567;SDS011;10442;49.932;11.592;2023-07-09T09:39:17;3.75;;;3.45;;
20567;SDS011;10442;49.932;11.592;2023-07-09T09:41:45;2.65;;;2.45;;
20567;SDS011;10442;49.932;11.592;2023-07-09T09:44:20;3.38;;;3.17;;
20567;SDS011;10442;49.932;11.592;2023-07-09T09:46:55;2.88;;;2.60;;
20567;SDS011;10442;49.932;11.592;2023-07-09T09:49:26;10.32;;;4.30;;
20567;SDS011;10442;49.932;11.592;2023-07-09T09:51:55;4.68;;;3.50;;
20567;SDS011;10442;49.932;11.592;2023-07-09T09:54:27;3.45;;;3.10;;
20567;SDS011;10442;49.932;11.592;2023-07-09T09:56:58;6.72;;;3.60;;
20567;SDS011;10442;49.932;11.592;2023-07-09T09:59:32;5.50;;;3.20;;
20567;SDS011;10442;49.932;11.592;2023-07-09T10:02:12;6.82;;;3.40;;
20567;SDS011;10442;49.932;11.592;2023-07-09T10:04:43;4.05;;;3.30;;
20567;SDS011;10442;49.932;11.592;2023-07-09T10:07:18;4.43;;;4.03;;
20567;SDS011;10442;49.932;11.592;2023-07-09T10:09:51;3.65;;;3.35;;
20567;SDS011;10442;49.932;11.592;2023-07-09T10:12:34;5.72;;;3.22;;
20567;SDS011;10442;49.932;11.592;2023-07-09T10:15:17;4.05;;;3.22;;
20567;SDS011;10442;49.932;11.592;2023-07-09T10:18:03;4.97;;;4.03;;
20567;SDS011;10442;49.932;11.592;2023-07-09T10:23:28;4.22;;;3.65;;
20567;SDS011;10442;49.932;11.592;2023-07-09T10:28:42;6.85;;;3.78;;
20567;SDS011;10442;49.932;11.592;2023-07-09T10:39:36;4.75;;;4.35;;
20567;SDS011;10442;49.932;11.592;2023-07-09T10:42:11;4.05;;;3.75;;
20567;SDS011;10442;49.932;11.592;2023-07-09T10:44:54;4.85;;;4.45;;
20567;SDS011;10442;49.932;11.592;2023-07-09T10:50:00;4.38;;;3.88;;
20567;SDS011;10442;49.932;11.592;2023-07-09T10:52:34;4.55;;;3.47;;
20567;SDS011;10442;49.932;11.592;2023-07-09T10:55:07;4.45;;;3.33;;
20567;SDS011;10442;49.932;11.592;2023-07-09T10:57:59;4.40;;;4.00;;
20567;SDS011;10442;49.932;11.592;2023-07-09T11:00:49;3.83;;;3.22;;
20567;SDS011;10442;49.932;11.592;2023-07-09T11:03:19;4.38;;;3.97;;
20567;SDS011;10442;49.932;11.592;2023-07-09T11:05:51;4.22;;;3.78;;
20567;SDS011;10442;49.932;11.592;2023-07-09T11:08:21;4.13;;;3.50;;
20567;SDS011;10442;49.932;11.592;2023-07-09T11:10:54;4.43;;;3.47;;
20567;SDS011;10442;49.932;11.592;2023-07-09T11:13:40;6.47;;;4.22;;
20567;SDS011;10442;49.932;11.592;2023-07-09T11:16:21;3.78;;;3.47;;
20567;SDS011;10442;49.932;11.592;2023-07-09T11:19:01;5.60;;;3.70;;
20567;SDS011;10442;49.932;11.592;2023-07-09T11:21:30;4.18;;;3.55;;
20567;SDS011;10442;49.932;11.592;2023-07-09T11:23:58;4.07;;;3.75;;
20567;SDS011;10442;49.932;11.592;2023-07-09T11:31:37;7.75;;;3.90;;
20567;SDS011;10442;49.932;11.592;2023-07-09T11:39:17;3.95;;;3.63;;
20567;SDS011;10442;49.932;11.592;2023-07-09T11:41:53;3.00;;;2.80;;
20567;SDS011;10442;49.932;11.592;2023-07-09T11:47:09;3.58;;;3.28;;
20567;SDS011;10442;49.932;11.592;2023-07-09T11:50:01;3.58;;;3.25;;
20567;SDS011;10442;49.932;11.592;2023-07-09T11:57:55;4.82;;;3.47;;
20567;SDS011;10442;49.932;11.592;2023-07-09T12:00:30;3.60;;;3.20;;
20567;SDS011;10442;49.932;11.592;2023-07-09T12:03:06;3.95;;;3.60;;
20567;SDS011;10442;49.932;11.592;2023-07-09T12:05:37;4.35;;;3.22;;
20567;SDS011;10442;49.932;11.592;2023-07-09T12:08:05;3.20;;;2.90;;
20567;SDS011;10442;49.932;11.592;2023-07-09T12:10:35;3.60;;;3.30;;
20567;SDS011;10442;49.932;11.592;2023-07-09T12:13:03;3.30;;;3.00;;
20567;SDS011;10442;49.932;11.592;2023-07-09T12:15:31;3.85;;;3.33;;
20567;SDS011;10442;49.932;11.592;2023-07-09T12:18:02;2.60;;;2.42;;
20567;SDS011;10442;49.932;11.592;2023-07-09T12:20:36;6.22;;;2.58;;
20567;SDS011;10442;49.932;11.592;2023-07-09T12:25:49;3.17;;;2.60;;
20567;SDS011;10442;49.932;11.592;2023-07-09T12:28:19;3.97;;;3.45;;
20567;SDS011;10442;49.932;11.592;2023-07-09T12:30:48;4.70;;;3.60;;
20567;SDS011;10442;49.932;11.592;2023-07-09T12:33:22;4.43;;;2.92;;
20567;SDS011;10442;49.932;11.592;2023-07-09T12:36:01;3.40;;;3.10;;
20567;SDS011;10442;49.932;11.592;2023-07-09T12:38:42;3.58;;;3.28;;
20567;SDS011;10442;49.932;11.592;2023-07-09T12:41:16;6.22;;;3.55;;
20567;SDS011;10442;49.932;11.592;2023-07-09T12:43:44;3.45;;;3.15;;
20567;SDS011;10442;49.932;11.592;2023-07-09T12:46:12;3.53;;;3.22;;
20567;SDS011;10442;49.932;11.592;2023-07-09T12:48:40;4.95;;;3.13;;
20567;SDS011;10442;49.932;11.592;2023-07-09T12:51:08;6.50;;;3.22;;
20567;SDS011;10442;49.932;11.592;2023-07-09T12:53:36;4.82;;;3.63;;
20567;SDS011;10442;49.932;11.592;2023-07-09T12:56:07;3.95;;;3.58;;
20567;SDS011;10442;49.932;11.592;2023-07-09T12:58:39;4.50;;;3.95;;
20567;SDS011;10442;49.932;11.592;2023-07-09T13:01:14;8.90;;;4.15;;
20567;SDS011;10442;49.932;11.592;2023-07-09T13:03:52;5.53;;;3.05;;
20567;SDS011;10442;49.932;11.592;2023-07-09T13:06:29;3.97;;;2.95;;
20567;SDS011;10442;49.932;11.592;2023-07-09T13:09:03;3.05;;;2.75;;
20567;SDS011;10442;49.932;11.592;2023-07-09T13:11:39;4.25;;;2.40;;
20567;SDS011;10442;49.932;11.592;2023-07-09T13:14:11;3.47;;;3.17;;
20567;SDS011;10442;49.932;11.592;2023-07-09T13:16:46;6.85;;;4.10;;
20567;SDS011;10442;49.932;11.592;2023-07-09T13:19:14;3.40;;;2.85;;
20567;SDS011;10442;49.932;11.592;2023-07-09T13:21:42;5.00;;;3.30;;
20567;SDS011;10442;49.932;11.592;2023-07-09T13:24:20;4.15;;;2.95;;
20567;SDS011;10442;49.932;11.592;2023-07-09T13:26:50;4.53;;;3.70;;
20567;SDS011;10442;49.932;11.592;2023-07-09T13:29:18;4.80;;;3.90;;
20567;SDS011;10442;49.932;11.592;2023-07-09T13:31:48;5.88;;;3.38;;
20567;SDS011;10442;49.932;11.592;2023-07-09T13:34:20;4.63;;;2.90;;
20567;SDS011;10442;49.932;11.592;2023-07-09T13:36:51;5.00;;;3.05;;
20567;SDS011;10442;49.932;11.592;2023-07-09T13:39:20;5.00;;;3.80;;
20567;SDS011;10442;49.932;11.592;2023-07-09T13:41:48;3.38;;;3.08;;
20567;SDS011;10442;49.932;11.592;2023-07-09T13:44:18;7.00;;;3.78;;
20567;SDS011;10442;49.932;11.592;2023-07-09T13:46:48;2.78;;;2.58;;
20567;SDS011;10442;49.932;11.592;2023-07-09T13:49:16;4.50;;;3.13;;
20567;SDS011;10442;49.932;11.592;2023-07-09T13:51:46;6.78;;;3.17;;
20567;SDS011;10442;49.932;11.592;2023-07-09T13:54:16;4.03;;;3.63;;
20567;SDS011;10442;49.932;11.592;2023-07-09T13:56:46;6.65;;;3.22;;
20567;SDS011;10442;49.932;11.592;2023-07-09T13:59:18;5.38;;;3.20;;
20567;SDS011;10442;49.932;11.592;2023-07-09T14:01:49;5.93;;;3.83;;
20567;SDS011;10442;49.932;11.592;2023-07-09T14:04:20;5.57;;;3.60;;
20567;SDS011;10442;49.932;11.592;2023-07-09T14:06:48;4.03;;;3.38;;
20567;SDS011;10442;49.932;11.592;2023-07-09T14:09:16;3.55;;;3.22;;
20567;SDS011;10442;49.932;11.592;2023-07-09T14:11:51;3.45;;;3.08;;
20567;SDS011;10442;49.932;11.592;2023-07-09T14:14:24;4.10;;;3.30;;
20567;SDS011;10442;49.932;11.592;2023-07-09T14:16:57;3.72;;;3.42;;
20567;SDS011;10442;49.932;11.592;2023-07-09T14:19:26;4.20;;;3.10;;
20567;SDS011;10442;49.932;11.592;2023-07-09T14:21:54;3.63;;;3.33;;
20567;SDS011;10442;49.932;11.592;2023-07-09T14:24:23;5.45;;;2.97;;
20567;SDS011;10442;49.932;11.592;2023-07-09T14:26:53;5.35;;;3.17;;
20567;SDS011;10442;49.932;11.592;2023-07-09T14:29:22;4.03;;;3.50;;
20567;SDS011;10442;49.932;11.592;2023-07-09T14:31:51;3.33;;;2.92;;
20567;SDS011;10442;49.932;11.592;2023-07-09T14:34:22;3.60;;;3.28;;
20567;SDS011;10442;49.932;11.592;2023-07-09T14:36:53;3.25;;;2.95;;
20567;SDS011;10442;49.932;11.592;2023-07-09T14:39:27;3.75;;;3.17;;
20567;SDS011;10442;49.932;11.592;2023-07-09T14:41:55;4.25;;;3.85;;
20567;SDS011;10442;49.932;11.592;2023-07-09T14:44:27;4.32;;;3.03;;
20567;SDS011;10442;49.932;11.592;2023-07-09T14:46:57;4.85;;;3.22;;
20567;SDS011;10442;49.932;11.592;2023-07-09T14:49:26;3.85;;;3.30;;
20567;SDS011;10442;49.932;11.592;2023-07-09T14:51:55;4.53;;;3.13;;
20567;SDS011;10442;49.932;11.592;2023-07-09T14:54:27;4.30;;;3.75;;
20567;SDS011;10442;49.932;11.592;2023-07-09T14:56:56;3.22;;;2.92;;
20567;SDS011;10442;49.932;11.592;2023-07-09T14:59:25;2.97;;;2.67;;
20567;SDS011;10442;49.932;11.592;2023-07-09T15:01:53;4.15;;;3.72;;
20567;SDS011;10442;49.932;11.592;2023-07-09T15:06:49;3.03;;;2.83;;
20567;SDS011;10442;49.932;11.592;2023-07-09T15:09:19;7.15;;;2.90;;
20567;SDS011;10442;49.932;11.592;2023-07-09T15:11:49;3.90;;;3.28;;
20567;SDS011;10442;49.932;11.592;2023-07-09T15:14:24;5.00;;;3.70;;
20567;SDS011;10442;49.932;11.592;2023-07-09T15:16:53;4.07;;;2.88;;
20567;SDS011;10442;49.932;11.592;2023-07-09T15:19:25;3.13;;;2.92;;
20567;SDS011;10442;49.932;11.592;2023-07-09T15:21:52;4.13;;;3.10;;
20567;SDS011;10442;49.932;11.592;2023-07-09T15:24:21;3.50;;;3.20;;
20567;SDS011;10442;49.932;11.592;2023-07-09T15:26:55;4.55;;;3.50;;
20567;SDS011;10442;49.932;11.592;2023-07-09T15:29:23;2.95;;;2.75;;
20567;SDS011;10442;49.932;11.592;2023-07-09T15:31:51;4.13;;;3.83;;
20567;SDS011;10442;49.932;11.592;2023-07-09T15:34:18;4.47;;;3.10;;
20567;SDS011;10442;49.932;11.592;2023-07-09T15:36:48;3.67;;;3.00;;
20567;SDS011;10442;49.932;11.592;2023-07-09T15:39:17;8.68;;;3.83;;
20567;SDS011;10442;49.932;11.592;2023-07-09T15:41:46;3.72;;;3.42;;
20567;SDS011;10442;49.932;11.592;2023-07-09T15:44:14;5.03;;;3.78;;
20567;SDS011;10442;49.932;11.592;2023-07-09T15:46:53;9.40;;;3.92;;
20567;SDS011;10442;49.932;11.592;2023-07-09T15:49:23;5.63;;;3.35;;
20567;SDS011;10442;49.932;11.592;2023-07-09T15:51:51;7.18;;;3.78;;